createdAt,value
2018-01-08T00:00:05.671Z,96.08
2018-01-08T00:01:05.661Z,96.17
2018-01-08T00:02:05.652Z,96.08
2018-01-08T00:03:26.672Z,96.17
2018-01-08T00:04:05.633Z,96.26
2018-01-08T00:05:05.629Z,96.73
2018-01-08T00:06:05.619Z,96.83
2018-01-08T00:07:05.612Z,96.17
2018-01-08T00:08:05.648Z,96.36
2018-01-08T00:09:26.604Z,96.08
2018-01-08T00:10:05.589Z,96.17
2018-01-08T00:11:05.594Z,96.17
2018-01-08T00:12:05.571Z,95.98
2018-01-08T00:13:05.561Z,96.45
2018-01-08T00:14:05.556Z,95.98
2018-01-08T00:15:26.548Z,96.64
2018-01-08T00:16:05.538Z,96.45
2018-01-08T00:17:05.530Z,96.17
2018-01-08T00:18:05.524Z,96.36
2018-01-08T00:19:05.518Z,96.08
2018-01-08T00:20:05.507Z,96.08
2018-01-08T00:21:26.507Z,95.98
2018-01-08T00:22:05.492Z,96.55
2018-01-08T00:23:05.485Z,96.26
2018-01-08T00:24:05.472Z,96.64
2018-01-08T00:25:05.465Z,96.08
2018-01-08T00:26:05.455Z,95.98
2018-01-08T00:27:26.455Z,96.64
2018-01-08T00:28:05.444Z,96.36
2018-01-08T00:29:05.433Z,97.12
2018-01-08T00:30:05.426Z,96.92
2018-01-08T00:31:05.420Z,96.36
2018-01-08T00:32:05.407Z,96.83
2018-01-08T00:33:26.408Z,96.36
2018-01-08T00:34:05.395Z,96.08
2018-01-08T00:35:05.386Z,96.45
2018-01-08T00:36:05.372Z,96.64
2018-01-08T00:37:05.367Z,96.45
2018-01-08T00:38:05.363Z,96.26
2018-01-08T00:39:26.359Z,96.92
2018-01-08T00:40:05.346Z,96.36
2018-01-08T00:41:05.338Z,96.83
2018-01-08T00:42:05.336Z,96.08
2018-01-08T00:43:05.323Z,96.83
2018-01-08T00:44:05.314Z,97.31
2018-01-08T00:45:26.313Z,97.31
2018-01-08T00:46:05.300Z,97.31
2018-01-08T00:47:05.290Z,97.21
2018-01-08T00:48:05.280Z,97.02
2018-01-08T00:49:05.275Z,97.12
2018-01-08T00:50:05.265Z,96.73
2018-01-08T00:51:26.265Z,97.40
2018-01-08T00:52:05.250Z,97.31
2018-01-08T00:53:05.244Z,97.02
2018-01-08T00:54:05.235Z,97.31
2018-01-08T00:55:05.232Z,97.21
2018-01-08T00:56:05.219Z,97.40
2018-01-08T00:57:26.221Z,96.45
2018-01-08T00:58:05.204Z,96.55
2018-01-08T00:59:05.196Z,96.45
2018-01-08T01:00:05.185Z,97.40
2018-01-08T01:01:05.178Z,97.31
2018-01-08T01:02:05.171Z,96.83
2018-01-08T01:03:26.160Z,97.21
2018-01-08T01:04:05.152Z,97.31
2018-01-08T01:05:05.148Z,97.21
2018-01-08T01:06:05.141Z,97.12
2018-01-08T01:07:05.131Z,97.21
2018-01-08T01:08:05.120Z,97.31
2018-01-08T01:09:26.122Z,97.02
2018-01-08T01:10:05.107Z,97.21
2018-01-08T01:11:05.102Z,97.21
2018-01-08T01:12:05.091Z,97.21
2018-01-08T01:13:05.079Z,97.21
2018-01-08T01:14:05.074Z,97.31
2018-01-08T01:15:26.071Z,97.02
2018-01-08T01:16:05.057Z,97.59
2018-01-08T01:17:05.050Z,97.02
2018-01-08T01:18:05.044Z,97.21
2018-01-08T01:19:05.034Z,97.21
2018-01-08T01:20:05.026Z,97.21
2018-01-08T01:21:26.029Z,97.21
2018-01-08T01:22:05.010Z,96.92
2018-01-08T01:23:05.004Z,97.40
2018-01-08T01:24:04.994Z,97.59
2018-01-08T01:25:04.988Z,97.59
2018-01-08T01:26:04.981Z,97.02
2018-01-08T01:27:25.973Z,97.40
2018-01-08T01:28:04.962Z,97.12
2018-01-08T01:29:04.956Z,96.92
2018-01-08T01:30:04.950Z,97.02
2018-01-08T01:31:04.940Z,97.12
2018-01-08T01:32:04.934Z,97.12
2018-01-08T01:33:25.929Z,97.02
2018-01-08T01:34:04.913Z,97.21
2018-01-08T01:35:04.912Z,97.59
2018-01-08T01:36:04.897Z,97.78
2018-01-08T01:37:04.899Z,97.88
2018-01-08T01:38:04.881Z,97.78
2018-01-08T01:39:25.878Z,97.59
2018-01-08T01:40:04.868Z,98.07
2018-01-08T01:41:04.859Z,98.16
2018-01-08T01:42:04.854Z,97.88
2018-01-08T01:43:04.842Z,98.07
2018-01-08T01:44:04.831Z,97.69
2018-01-08T01:45:25.833Z,97.59
2018-01-08T01:46:04.825Z,97.97
2018-01-08T01:47:04.813Z,97.78
2018-01-08T01:48:04.804Z,98.16
2018-01-08T01:49:04.796Z,97.69
2018-01-08T01:50:04.788Z,97.78
2018-01-08T01:51:25.783Z,97.31
2018-01-08T01:52:04.770Z,97.50
2018-01-08T01:53:04.761Z,97.31
2018-01-08T01:54:04.750Z,97.40
2018-01-08T01:55:04.747Z,97.21
2018-01-08T01:56:04.738Z,97.12
2018-01-08T01:57:25.735Z,97.40
2018-01-08T01:58:04.719Z,97.40
2018-01-08T01:59:04.733Z,97.12
2018-01-08T02:00:04.704Z,97.21
2018-01-08T02:01:04.697Z,97.59
2018-01-08T02:02:04.690Z,97.21
2018-01-08T02:03:25.685Z,97.21
2018-01-08T02:04:04.666Z,97.31
2018-01-08T02:05:04.666Z,97.31
2018-01-08T02:06:04.655Z,97.78
2018-01-08T02:07:04.646Z,98.07
2018-01-08T02:08:04.638Z,97.78
2018-01-08T02:09:25.639Z,97.78
2018-01-08T02:10:04.625Z,98.54
2018-01-08T02:11:04.615Z,98.44
2018-01-08T02:12:04.606Z,97.88
2018-01-08T02:13:04.598Z,97.97
2018-01-08T02:14:04.593Z,97.78
2018-01-08T02:15:25.589Z,97.88
2018-01-08T02:16:04.574Z,98.44
2018-01-08T02:17:04.567Z,98.07
2018-01-08T02:18:04.562Z,97.97
2018-01-08T02:19:04.553Z,98.73
2018-01-08T02:20:04.545Z,98.35
2018-01-08T02:21:25.548Z,98.25
2018-01-08T02:22:04.528Z,98.25
2018-01-08T02:23:04.519Z,98.25
2018-01-08T02:24:04.512Z,98.63
2018-01-08T02:25:04.498Z,98.73
2018-01-08T02:26:04.496Z,98.44
2018-01-08T02:27:25.492Z,98.73
2018-01-08T02:28:04.495Z,98.73
2018-01-08T02:29:04.466Z,99.20
2018-01-08T02:30:04.462Z,99.01
2018-01-08T02:31:04.455Z,98.92
2018-01-08T02:32:04.448Z,98.63
2018-01-08T02:33:25.445Z,98.82
2018-01-08T02:34:04.432Z,98.54
2018-01-08T02:35:04.424Z,98.54
2018-01-08T02:36:04.417Z,98.16
2018-01-08T02:37:04.406Z,98.44
2018-01-08T02:38:04.395Z,98.44
2018-01-08T02:39:25.390Z,98.54
2018-01-08T02:40:04.384Z,98.54
2018-01-08T02:41:04.375Z,98.44
2018-01-08T02:42:04.368Z,98.35
2018-01-08T02:43:04.362Z,98.44
2018-01-08T02:44:04.355Z,98.54
2018-01-08T02:45:25.347Z,98.35
2018-01-08T02:46:04.333Z,98.63
2018-01-08T02:47:04.325Z,98.44
2018-01-08T02:48:04.316Z,99.20
2018-01-08T02:49:04.304Z,99.20
2018-01-08T02:50:04.304Z,99.01
2018-01-08T02:51:25.297Z,98.92
2018-01-08T02:52:04.286Z,98.82
2018-01-08T02:53:04.275Z,98.82
2018-01-08T02:54:04.268Z,98.63
2018-01-08T02:55:04.260Z,98.92
2018-01-08T02:56:04.253Z,98.92
2018-01-08T02:57:25.256Z,98.44
2018-01-08T02:58:04.231Z,98.44
2018-01-08T02:59:04.225Z,99.01
2018-01-08T03:00:04.216Z,98.54
2018-01-08T03:01:04.211Z,98.92
2018-01-08T03:02:04.204Z,98.73
2018-01-08T03:03:25.198Z,99.20
2018-01-08T03:04:04.189Z,99.20
2018-01-08T03:05:04.181Z,99.01
2018-01-08T03:06:04.172Z,98.92
2018-01-08T03:07:04.165Z,98.92
2018-01-08T03:08:04.154Z,99.11
2018-01-08T03:09:25.152Z,99.01
2018-01-08T03:10:04.134Z,99.01
2018-01-08T03:11:04.130Z,98.92
2018-01-08T03:12:04.120Z,99.01
2018-01-08T03:13:04.112Z,98.54
2018-01-08T03:14:04.105Z,99.20
2018-01-08T03:15:25.099Z,98.92
2018-01-08T03:16:04.084Z,99.30
2018-01-08T03:17:04.079Z,99.11
2018-01-08T03:18:04.073Z,99.20
2018-01-08T03:19:04.062Z,99.20
2018-01-08T03:20:04.050Z,99.30
2018-01-08T03:21:25.053Z,99.58
2018-01-08T03:22:04.041Z,99.20
2018-01-08T03:23:04.030Z,99.30
2018-01-08T03:24:04.030Z,98.82
2018-01-08T03:25:04.013Z,99.11
2018-01-08T03:26:04.004Z,99.30
2018-01-08T03:27:25.002Z,99.11
2018-01-08T03:28:03.990Z,99.39
2018-01-08T03:29:03.982Z,99.49
2018-01-08T03:30:03.971Z,98.92
2018-01-08T03:31:03.963Z,99.20
2018-01-08T03:32:03.957Z,99.39
2018-01-08T03:33:24.955Z,99.39
2018-01-08T03:34:03.943Z,99.49
2018-01-08T03:35:03.934Z,98.92
2018-01-08T03:36:03.926Z,99.01
2018-01-08T03:37:03.916Z,99.49
2018-01-08T03:38:03.911Z,99.01
2018-01-08T03:39:24.909Z,98.54
2018-01-08T03:40:03.891Z,98.16
2018-01-08T03:41:03.883Z,98.63
2018-01-08T03:42:03.878Z,98.92
2018-01-08T03:43:03.869Z,98.73
2018-01-08T03:44:03.860Z,98.63
2018-01-08T03:45:24.856Z,98.44
2018-01-08T03:46:03.844Z,98.54
2018-01-08T03:47:03.832Z,98.44
2018-01-08T03:48:03.828Z,98.25
2018-01-08T03:49:03.823Z,98.35
2018-01-08T03:50:03.813Z,98.25
2018-01-08T03:51:24.808Z,98.44
2018-01-08T03:52:03.797Z,98.44
2018-01-08T03:53:03.795Z,98.35
2018-01-08T03:54:03.788Z,98.25
2018-01-08T03:55:03.772Z,98.63
2018-01-08T03:56:03.765Z,98.54
2018-01-08T03:57:24.760Z,99.11
2018-01-08T03:58:03.747Z,98.92
2018-01-08T03:59:03.738Z,98.92
2018-01-08T04:00:03.730Z,99.01
2018-01-08T04:01:03.720Z,99.11
2018-01-08T04:02:03.708Z,99.49
2018-01-08T04:03:24.713Z,99.20
2018-01-08T04:04:03.701Z,98.92
2018-01-08T04:05:03.690Z,99.30
2018-01-08T04:06:03.689Z,98.92
2018-01-08T04:07:03.674Z,99.11
2018-01-08T04:08:03.667Z,99.11
2018-01-08T04:09:24.663Z,99.11
2018-01-08T04:10:03.649Z,99.39
2018-01-08T04:11:03.638Z,99.39
2018-01-08T04:12:03.636Z,99.20
2018-01-08T04:13:03.631Z,99.39
2018-01-08T04:14:03.622Z,99.01
2018-01-08T04:15:24.615Z,99.30
2018-01-08T04:16:03.600Z,99.39
2018-01-08T04:17:03.595Z,99.11
2018-01-08T04:18:03.584Z,99.77
2018-01-08T04:19:03.577Z,99.39
2018-01-08T04:20:03.567Z,99.39
2018-01-08T04:21:24.567Z,99.39
2018-01-08T04:22:03.555Z,99.01
2018-01-08T04:23:03.544Z,99.20
2018-01-08T04:24:03.545Z,99.20
2018-01-08T04:25:03.531Z,99.30
2018-01-08T04:26:03.522Z,99.58
2018-01-08T04:27:24.516Z,99.68
2018-01-08T04:28:03.506Z,99.77
2018-01-08T04:29:03.497Z,99.58
2018-01-08T04:30:03.491Z,99.87
2018-01-08T04:31:03.479Z,99.58
2018-01-08T04:32:03.473Z,99.58
2018-01-08T04:33:25.221Z,99.49
2018-01-08T04:34:03.461Z,99.96
2018-01-08T04:35:03.453Z,99.87
2018-01-08T04:36:03.444Z,99.87
2018-01-08T04:37:03.430Z,99.58
2018-01-08T04:38:03.426Z,99.87
2018-01-08T04:39:24.418Z,99.99
2018-01-08T04:40:03.407Z,99.99
2018-01-08T04:41:03.402Z,99.99
2018-01-08T04:42:03.394Z,99.99
2018-01-08T04:43:03.383Z,99.99
2018-01-08T04:44:03.378Z,99.99
2018-01-08T04:45:24.373Z,99.99
2018-01-08T04:46:03.367Z,99.99
2018-01-08T04:47:03.352Z,99.99
2018-01-08T04:48:03.349Z,99.96
2018-01-08T04:49:03.336Z,99.99
2018-01-08T04:50:03.330Z,99.77
2018-01-08T04:51:24.322Z,99.99
2018-01-08T04:52:03.317Z,99.99
2018-01-08T04:53:03.305Z,99.96
2018-01-08T04:54:03.297Z,99.99
2018-01-08T04:55:03.290Z,99.96
2018-01-08T04:56:03.281Z,99.99
2018-01-08T04:57:24.278Z,99.99
2018-01-08T04:58:03.267Z,99.68
2018-01-08T04:59:03.258Z,99.99
2018-01-08T05:00:03.252Z,99.99
2018-01-08T05:01:03.245Z,99.99
2018-01-08T05:02:03.234Z,99.96
2018-01-08T05:03:24.232Z,99.99
2018-01-08T05:04:03.219Z,99.99
2018-01-08T05:05:03.215Z,99.99
2018-01-08T05:06:03.205Z,99.99
2018-01-08T05:07:03.220Z,99.96
2018-01-08T05:08:03.182Z,99.99
2018-01-08T05:09:24.187Z,99.99
2018-01-08T05:10:03.170Z,99.99
2018-01-08T05:11:03.163Z,99.99
2018-01-08T05:12:03.153Z,99.99
2018-01-08T05:13:03.147Z,99.99
2018-01-08T05:14:03.142Z,99.99
2018-01-08T05:15:24.137Z,99.99
2018-01-08T05:16:03.123Z,99.99
2018-01-08T05:17:03.116Z,99.99
2018-01-08T05:18:03.108Z,99.58
2018-01-08T05:19:03.100Z,99.96
2018-01-08T05:20:03.095Z,99.96
2018-01-08T05:21:24.092Z,99.68
2018-01-08T05:22:03.078Z,99.99
2018-01-08T05:23:03.065Z,99.99
2018-01-08T05:24:03.062Z,99.99
2018-01-08T05:25:03.053Z,99.99
2018-01-08T05:26:03.046Z,99.99
2018-01-08T05:27:24.043Z,99.99
2018-01-08T05:28:03.026Z,99.99
2018-01-08T05:29:03.015Z,99.99
2018-01-08T05:30:03.015Z,99.99
2018-01-08T05:31:03.006Z,99.99
2018-01-08T05:32:02.995Z,99.87
2018-01-08T05:33:23.993Z,99.58
2018-01-08T05:34:02.980Z,99.58
2018-01-08T05:35:02.973Z,99.11
2018-01-08T05:36:02.966Z,99.39
2018-01-08T05:37:02.961Z,99.49
2018-01-08T05:38:02.949Z,99.58
2018-01-08T05:39:23.942Z,99.58
2018-01-08T05:40:02.953Z,99.49
2018-01-08T05:41:02.920Z,99.58
2018-01-08T05:42:02.914Z,99.77
2018-01-08T05:43:02.910Z,99.77
2018-01-08T05:44:02.903Z,99.87
2018-01-08T05:45:23.902Z,99.39
2018-01-08T05:46:02.893Z,99.20
2018-01-08T05:47:02.897Z,99.30
2018-01-08T05:48:02.887Z,99.39
2018-01-08T05:49:02.870Z,99.77
2018-01-08T05:50:02.877Z,99.49
2018-01-08T05:51:23.864Z,99.58
2018-01-08T05:52:02.880Z,99.77
2018-01-08T05:53:02.828Z,99.49
2018-01-08T05:54:02.844Z,99.77
2018-01-08T05:55:02.811Z,99.87
2018-01-08T05:56:02.815Z,99.49
2018-01-08T05:57:23.805Z,99.77
2018-01-08T05:58:02.788Z,99.58
2018-01-08T05:59:02.785Z,99.68
2018-01-08T06:00:02.777Z,99.39
2018-01-08T06:01:02.769Z,99.39
2018-01-08T06:02:02.763Z,99.49
2018-01-08T06:03:23.754Z,99.77
2018-01-08T06:04:02.752Z,99.87
2018-01-08T06:05:02.738Z,99.77
2018-01-08T06:06:02.738Z,99.77
2018-01-08T06:07:02.734Z,99.68
2018-01-08T06:08:02.710Z,99.77
2018-01-08T06:09:23.716Z,99.68
2018-01-08T06:10:02.696Z,99.49
2018-01-08T06:11:02.691Z,99.49
2018-01-08T06:12:02.682Z,99.49
2018-01-08T06:13:02.675Z,99.39
2018-01-08T06:14:02.664Z,99.39
2018-01-08T06:15:23.664Z,98.92
2018-01-08T06:16:02.653Z,99.11
2018-01-08T06:17:02.651Z,99.30
2018-01-08T06:18:02.636Z,99.30
2018-01-08T06:19:02.631Z,99.11
2018-01-08T06:20:02.620Z,98.92
2018-01-08T06:21:23.617Z,99.20
2018-01-08T06:22:02.604Z,99.58
2018-01-08T06:23:02.595Z,99.68
2018-01-08T06:24:02.589Z,99.68
2018-01-08T06:25:02.582Z,99.68
2018-01-08T06:26:02.574Z,99.87
2018-01-08T06:27:24.253Z,99.68
2018-01-08T06:28:02.559Z,99.68
2018-01-08T06:29:02.550Z,99.49
2018-01-08T06:30:02.540Z,99.30
2018-01-08T06:31:02.533Z,99.39
2018-01-08T06:32:02.527Z,99.49
2018-01-08T06:33:23.528Z,99.58
2018-01-08T06:34:02.510Z,99.58
2018-01-08T06:35:02.502Z,99.11
2018-01-08T06:36:02.499Z,99.30
2018-01-08T06:37:02.487Z,99.49
2018-01-08T06:38:02.479Z,99.58
2018-01-08T06:39:23.479Z,99.58
2018-01-08T06:40:02.466Z,99.01
2018-01-08T06:41:02.456Z,99.39
2018-01-08T06:42:02.451Z,99.49
2018-01-08T06:43:02.441Z,99.87
2018-01-08T06:44:02.434Z,99.58
2018-01-08T06:45:23.435Z,99.49
2018-01-08T06:46:02.418Z,99.58
2018-01-08T06:47:02.414Z,99.49
2018-01-08T06:48:02.403Z,99.58
2018-01-08T06:49:02.394Z,99.77
2018-01-08T06:50:02.387Z,99.58
2018-01-08T06:51:23.383Z,99.01
2018-01-08T06:52:02.370Z,99.11
2018-01-08T06:53:02.363Z,99.39
2018-01-08T06:54:02.355Z,99.58
2018-01-08T06:55:02.344Z,99.58
2018-01-08T06:56:02.339Z,99.49
2018-01-08T06:57:23.338Z,99.58
2018-01-08T06:58:02.324Z,99.20
2018-01-08T06:59:02.316Z,99.11
2018-01-08T07:00:02.311Z,99.58
2018-01-08T07:01:02.300Z,99.20
2018-01-08T07:02:02.294Z,99.20
2018-01-08T07:03:24.257Z,99.11
2018-01-08T07:04:02.276Z,99.39
2018-01-08T07:05:02.262Z,99.30
2018-01-08T07:06:02.256Z,98.92
2018-01-08T07:07:02.767Z,99.11
2018-01-08T07:08:02.244Z,98.92
2018-01-08T07:09:23.252Z,99.30
2018-01-08T07:10:02.228Z,99.20
2018-01-08T07:11:02.219Z,99.30
2018-01-08T07:12:02.209Z,99.11
2018-01-08T07:13:02.204Z,99.20
2018-01-08T07:14:02.195Z,99.11
2018-01-08T07:15:23.192Z,99.01
2018-01-08T07:16:02.178Z,99.58
2018-01-08T07:17:02.172Z,99.11
2018-01-08T07:18:02.164Z,99.11
2018-01-08T07:19:02.154Z,98.92
2018-01-08T07:20:02.149Z,99.20
2018-01-08T07:21:23.156Z,99.20
2018-01-08T07:22:02.131Z,99.39
2018-01-08T07:23:02.124Z,99.30
2018-01-08T07:24:02.118Z,99.20
2018-01-08T07:25:02.107Z,99.39
2018-01-08T07:26:02.096Z,99.49
2018-01-08T07:27:23.095Z,98.92
2018-01-08T07:28:02.082Z,99.49
2018-01-08T07:29:02.075Z,99.49
2018-01-08T07:30:02.068Z,98.92
2018-01-08T07:31:02.061Z,99.11
2018-01-08T07:32:02.048Z,99.11
2018-01-08T07:33:23.061Z,99.11
2018-01-08T07:34:02.036Z,98.82
2018-01-08T07:35:02.029Z,99.11
2018-01-08T07:36:02.016Z,99.68
2018-01-08T07:37:02.013Z,99.30
2018-01-08T07:38:02.007Z,99.20
2018-01-08T07:39:23.003Z,99.49
2018-01-08T07:40:01.987Z,99.11
2018-01-08T07:41:01.978Z,99.20
2018-01-08T07:42:01.970Z,98.82
2018-01-08T07:43:01.961Z,98.73
2018-01-08T07:44:01.956Z,98.63
2018-01-08T07:45:22.956Z,98.54
2018-01-08T07:46:01.938Z,98.92
2018-01-08T07:47:01.930Z,98.82
2018-01-08T07:48:02.859Z,99.49
2018-01-08T07:49:01.918Z,99.49
2018-01-08T07:50:01.908Z,98.92
2018-01-08T07:51:22.902Z,99.20
2018-01-08T07:52:01.896Z,99.11
2018-01-08T07:53:01.884Z,99.20
2018-01-08T07:54:01.877Z,98.92
2018-01-08T07:55:02.853Z,99.30
2018-01-08T07:56:01.860Z,99.58
2018-01-08T07:57:22.861Z,98.92
2018-01-08T07:58:01.843Z,99.11
2018-01-08T07:59:01.840Z,99.11
2018-01-08T08:00:01.828Z,99.30
2018-01-08T08:01:01.819Z,99.01
2018-01-08T08:02:01.816Z,98.92
2018-01-08T08:03:22.812Z,98.44
2018-01-08T08:04:01.795Z,98.54
2018-01-08T08:05:01.788Z,98.54
2018-01-08T08:06:01.788Z,98.63
2018-01-08T08:07:01.769Z,98.73
2018-01-08T08:08:01.763Z,98.92
2018-01-08T08:09:22.761Z,98.73
2018-01-08T08:10:01.749Z,99.11
2018-01-08T08:11:01.740Z,99.49
2018-01-08T08:12:01.731Z,99.01
2018-01-08T08:13:01.723Z,99.01
2018-01-08T08:14:01.721Z,98.92
2018-01-08T08:15:22.712Z,98.44
2018-01-08T08:16:01.703Z,99.20
2018-01-08T08:17:01.694Z,98.92
2018-01-08T08:18:01.685Z,99.01
2018-01-08T08:19:01.678Z,98.92
2018-01-08T08:20:01.675Z,98.73
2018-01-08T08:21:22.668Z,99.49
2018-01-08T08:22:01.668Z,99.49
2018-01-08T08:23:01.641Z,98.73
2018-01-08T08:24:01.644Z,99.20
2018-01-08T08:25:01.633Z,99.11
2018-01-08T08:26:01.630Z,99.01
2018-01-08T08:27:22.617Z,99.20
2018-01-08T08:28:01.610Z,99.20
2018-01-08T08:29:01.600Z,99.30
2018-01-08T08:30:01.593Z,98.54
2018-01-08T08:31:01.586Z,98.44
2018-01-08T08:32:01.574Z,98.92
2018-01-08T08:33:22.574Z,99.01
2018-01-08T08:34:01.563Z,98.73
2018-01-08T08:35:01.557Z,98.92
2018-01-08T08:36:01.544Z,98.54
2018-01-08T08:37:01.536Z,98.25
2018-01-08T08:38:01.533Z,98.44
2018-01-08T08:39:22.526Z,98.25
2018-01-08T08:40:01.512Z,98.25
2018-01-08T08:41:01.505Z,98.16
2018-01-08T08:42:01.510Z,98.44
2018-01-08T08:43:02.292Z,98.25
2018-01-08T08:44:01.480Z,98.35
2018-01-08T08:45:22.479Z,98.44
2018-01-08T08:46:01.467Z,98.35
2018-01-08T08:47:01.468Z,98.35
2018-01-08T08:48:01.445Z,98.35
2018-01-08T08:49:01.443Z,98.68
2018-01-08T08:50:01.434Z,98.54
2018-01-08T08:51:22.432Z,98.25
2018-01-08T08:52:01.422Z,98.16
2018-01-08T08:53:01.410Z,98.54
2018-01-08T08:54:01.403Z,98.40
2018-01-08T08:55:01.633Z,98.16
2018-01-08T08:56:01.390Z,98.73
2018-01-08T08:57:22.390Z,97.88
2018-01-08T08:58:01.372Z,98.21
2018-01-08T08:59:01.365Z,98.02
2018-01-08T09:00:01.354Z,98.54
2018-01-08T09:01:01.350Z,98.63
2018-01-08T09:02:01.870Z,98.63
2018-01-08T09:03:22.343Z,98.68
2018-01-08T09:04:01.322Z,98.07
2018-01-08T09:05:01.317Z,98.73
2018-01-08T09:06:01.317Z,99.01
2018-01-08T09:07:01.302Z,98.54
2018-01-08T09:08:01.296Z,98.78
2018-01-08T09:09:22.301Z,98.44
2018-01-08T09:10:01.280Z,98.92
2018-01-08T09:11:01.273Z,98.44
2018-01-08T09:12:01.264Z,98.73
2018-01-08T09:13:01.258Z,98.63
2018-01-08T09:14:01.248Z,98.92
2018-01-08T09:15:22.248Z,98.92
2018-01-08T09:16:01.234Z,98.92
2018-01-08T09:17:01.226Z,98.92
2018-01-08T09:18:01.221Z,99.30
2018-01-08T09:19:01.211Z,99.11
2018-01-08T09:20:01.214Z,99.49
2018-01-08T09:21:22.204Z,99.01
2018-01-08T09:22:01.189Z,99.01
2018-01-08T09:23:01.180Z,98.92
2018-01-08T09:24:01.172Z,99.11
2018-01-08T09:25:01.164Z,99.11
2018-01-08T09:26:01.157Z,99.01
2018-01-08T09:27:22.156Z,99.11
2018-01-08T09:28:01.143Z,98.92
2018-01-08T09:29:01.136Z,99.26
2018-01-08T09:30:01.128Z,99.26
2018-01-08T09:31:01.120Z,99.06
2018-01-08T09:32:01.111Z,98.97
2018-01-08T09:33:22.113Z,98.40
2018-01-08T09:34:01.097Z,98.97
2018-01-08T09:35:01.090Z,98.49
2018-01-08T09:36:01.083Z,98.87
2018-01-08T09:37:01.074Z,99.35
2018-01-08T09:38:01.069Z,98.97
2018-01-08T09:39:22.070Z,99.44
2018-01-08T09:40:01.053Z,98.97
2018-01-08T09:41:01.045Z,98.97
2018-01-08T09:42:01.049Z,98.97
2018-01-08T09:43:01.028Z,98.97
2018-01-08T09:44:01.029Z,99.16
2018-01-08T09:45:22.843Z,99.06
2018-01-08T09:46:01.001Z,99.35
2018-01-08T09:47:01.011Z,99.30
2018-01-08T09:48:00.991Z,99.26
2018-01-08T09:49:00.984Z,99.35
2018-01-08T09:50:00.979Z,98.87
2018-01-08T09:51:21.968Z,98.59
2018-01-08T09:52:00.960Z,98.49
2018-01-08T09:53:00.953Z,98.40
2018-01-08T09:54:00.946Z,98.78
2018-01-08T09:55:00.937Z,98.97
2018-01-08T09:56:00.929Z,98.97
2018-01-08T09:57:21.934Z,99.26
2018-01-08T09:58:00.917Z,99.06
2018-01-08T09:59:00.910Z,98.97
2018-01-08T10:00:00.901Z,98.97
2018-01-08T10:01:00.895Z,98.87
2018-01-08T10:02:00.887Z,98.49
2018-01-08T10:03:21.890Z,98.30
2018-01-08T10:04:00.867Z,98.40
2018-01-08T10:05:00.866Z,98.59
2018-01-08T10:06:00.859Z,98.02
2018-01-08T10:07:00.851Z,98.02
2018-01-08T10:08:00.840Z,98.59
2018-01-08T10:09:21.838Z,97.83
2018-01-08T10:10:00.828Z,97.92
2018-01-08T10:11:00.823Z,98.11
2018-01-08T10:12:00.808Z,97.74
2018-01-08T10:13:00.804Z,97.83
2018-01-08T10:14:00.801Z,98.30
2018-01-08T10:15:22.309Z,98.02
2018-01-08T10:16:00.777Z,97.83
2018-01-08T10:17:00.777Z,97.92
2018-01-08T10:18:00.768Z,98.02
2018-01-08T10:19:00.761Z,97.92
2018-01-08T10:20:00.749Z,97.83
2018-01-08T10:21:21.750Z,98.11
2018-01-08T10:22:00.751Z,98.11
2018-01-08T10:23:00.738Z,98.02
2018-01-08T10:24:00.721Z,97.83
2018-01-08T10:25:00.718Z,97.74
2018-01-08T10:26:00.705Z,97.74
2018-01-08T10:27:21.708Z,97.74
2018-01-08T10:28:00.699Z,97.55
2018-01-08T10:29:00.687Z,97.55
2018-01-08T10:30:00.680Z,97.83
2018-01-08T10:31:00.685Z,97.26
2018-01-08T10:32:00.667Z,96.97
2018-01-08T10:33:21.699Z,96.88
2018-01-08T10:34:00.652Z,96.69
2018-01-08T10:35:00.680Z,97.26
2018-01-08T10:36:00.634Z,97.07
2018-01-08T10:37:00.636Z,97.02
2018-01-08T10:38:00.623Z,96.97
2018-01-08T10:39:21.620Z,97.07
2018-01-08T10:40:00.610Z,96.41
2018-01-08T10:41:00.600Z,97.26
2018-01-08T10:42:00.593Z,97.22
2018-01-08T10:43:00.586Z,97.31
2018-01-08T10:44:00.580Z,97.02
2018-01-08T10:45:21.578Z,97.31
2018-01-08T10:46:00.565Z,97.31
2018-01-08T10:47:00.571Z,97.12
2018-01-08T10:48:00.549Z,97.31
2018-01-08T10:49:00.542Z,97.31
2018-01-08T10:50:00.536Z,97.31
2018-01-08T10:51:21.535Z,96.64
2018-01-08T10:52:00.521Z,96.36
2018-01-08T10:53:00.516Z,96.45
2018-01-08T10:54:00.509Z,96.17
2018-01-08T10:55:00.500Z,96.55
2018-01-08T10:56:00.518Z,96.45
2018-01-08T10:57:21.491Z,96.93
2018-01-08T10:58:00.480Z,96.36
2018-01-08T10:59:00.473Z,96.17
2018-01-08T11:00:00.466Z,96.55
2018-01-08T11:01:00.464Z,96.55
2018-01-08T11:02:00.714Z,97.02
2018-01-08T11:03:21.451Z,96.64
2018-01-08T11:04:00.436Z,96.08
2018-01-08T11:05:00.432Z,96.17
2018-01-08T11:06:00.425Z,96.36
2018-01-08T11:07:00.433Z,96.26
2018-01-08T11:08:00.408Z,95.22
2018-01-08T11:09:21.408Z,95.60
2018-01-08T11:10:00.395Z,96.26
2018-01-08T11:11:00.382Z,95.89
2018-01-08T11:12:00.380Z,95.79
2018-01-08T11:13:00.374Z,94.84
2018-01-08T11:14:00.365Z,95.12
2018-01-08T11:15:21.369Z,94.46
2018-01-08T11:16:00.356Z,95.12
2018-01-08T11:17:00.340Z,94.79
2018-01-08T11:18:00.341Z,94.51
2018-01-08T11:19:00.333Z,93.84
2018-01-08T11:20:00.324Z,93.27
2018-01-08T11:21:21.317Z,93.56
2018-01-08T11:22:00.310Z,93.56
2018-01-08T11:23:00.302Z,92.99
2018-01-08T11:24:00.299Z,93.18
2018-01-08T11:25:00.288Z,93.18
2018-01-08T11:26:00.281Z,92.90
2018-01-08T11:27:21.280Z,93.46
2018-01-08T11:28:00.263Z,93.37
2018-01-08T11:29:00.258Z,93.37
2018-01-08T11:30:00.252Z,92.61
2018-01-08T11:31:00.240Z,92.80
2018-01-08T11:32:00.235Z,92.51
2018-01-08T11:33:21.237Z,92.51
2018-01-08T11:34:00.224Z,92.51
2018-01-08T11:35:00.215Z,92.04
2018-01-08T11:36:00.208Z,91.94
2018-01-08T11:37:00.205Z,92.04
2018-01-08T11:38:00.196Z,92.32
2018-01-08T11:39:21.197Z,92.42
2018-01-08T11:40:00.180Z,92.51
2018-01-08T11:41:00.174Z,92.04
2018-01-08T11:42:00.167Z,92.32
2018-01-08T11:43:00.160Z,92.32
2018-01-08T11:44:00.154Z,92.42
2018-01-08T11:45:21.152Z,92.32
2018-01-08T11:46:00.137Z,92.23
2018-01-08T11:47:00.140Z,91.28
2018-01-08T11:48:00.138Z,91.09
2018-01-08T11:49:00.119Z,92.13
2018-01-08T11:50:00.126Z,91.66
2018-01-08T11:51:21.115Z,91.85
2018-01-08T11:52:00.132Z,91.94
2018-01-08T11:53:00.097Z,91.47
2018-01-08T11:54:00.094Z,92.13
2018-01-08T11:55:00.085Z,91.94
2018-01-08T11:56:00.070Z,91.56
2018-01-08T11:57:21.073Z,92.23
2018-01-08T11:58:00.051Z,91.85
2018-01-08T11:59:00.045Z,91.61
2018-01-08T12:00:00.049Z,91.09
2018-01-08T12:01:00.063Z,91.56
2018-01-08T12:02:00.032Z,91.38
2018-01-08T12:03:21.026Z,91.38
2018-01-08T12:04:00.018Z,91.19
2018-01-08T12:05:00.012Z,90.71
2018-01-08T12:06:00.000Z,91.09
2018-01-08T12:06:59.991Z,91.38
2018-01-08T12:07:59.982Z,90.90
2018-01-08T12:09:20.979Z,90.71
2018-01-08T12:09:59.972Z,91.19
2018-01-08T12:10:59.967Z,91.38
2018-01-08T12:11:59.959Z,91.19
2018-01-08T12:12:59.955Z,91.38
2018-01-08T12:13:59.948Z,91.28
2018-01-08T12:15:20.972Z,91.28
2018-01-08T12:15:59.932Z,91.38
2018-01-08T12:16:59.922Z,91.85
2018-01-08T12:17:59.946Z,91.85
2018-01-08T12:18:59.908Z,91.75
2018-01-08T12:19:59.907Z,90.90
2018-01-08T12:21:20.903Z,91.19
2018-01-08T12:21:59.889Z,91.56
2018-01-08T12:22:59.877Z,91.38
2018-01-08T12:23:59.873Z,91.38
2018-01-08T12:24:59.868Z,91.38
2018-01-08T12:25:59.867Z,91.09
2018-01-08T12:27:20.858Z,91.28
2018-01-08T12:27:59.845Z,91.28
2018-01-08T12:28:59.837Z,91.04
2018-01-08T12:29:59.833Z,91.13
2018-01-08T12:30:59.831Z,90.94
2018-01-08T12:31:59.818Z,90.75
2018-01-08T12:33:20.813Z,90.75
2018-01-08T12:33:59.805Z,90.75
2018-01-08T12:34:59.796Z,90.94
2018-01-08T12:35:59.833Z,90.85
2018-01-08T12:36:59.782Z,90.66
2018-01-08T12:37:59.776Z,91.04
2018-01-08T12:39:20.778Z,91.04
2018-01-08T12:39:59.761Z,90.28
2018-01-08T12:40:59.756Z,90.19
2018-01-08T12:41:59.747Z,90.09
2018-01-08T12:42:59.740Z,90.19
2018-01-08T12:43:59.734Z,90.00
2018-01-08T12:45:20.739Z,90.66
2018-01-08T12:45:59.721Z,90.66
2018-01-08T12:46:59.713Z,90.37
2018-01-08T12:47:59.706Z,89.71
2018-01-08T12:48:59.700Z,90.37
2018-01-08T12:49:59.708Z,90.75
2018-01-08T12:51:20.691Z,90.09
2018-01-08T12:51:59.683Z,90.19